sensor_id;sensor_type;location;lat;lon;timestamp;temperature;humidity
4354;DHT22;11018;51.258;6.806;2023-12-07T00:02:12;1.40;99.90
4354;DHT22;11018;51.258;6.806;2023-12-07T00:04:38;1.40;99.90
4354;DHT22;11018;51.258;6.806;2023-12-07T00:07:04;1.30;99.90
4354;DHT22;11018;51.258;6.806;2023-12-07T00:09:29;1.30;99.90
4354;DHT22;11018;51.258;6.806;2023-12-07T00:11:55;1.30;99.90
4354;DHT22;11018;51.258;6.806;2023-12-07T00:14:21;1.30;99.90
4354;DHT22;11018;51.258;6.806;2023-12-07T00:16:46;1.30;99.90
4354;DHT22;11018;51.258;6.806;2023-12-07T00:19:12;1.20;99.90
4354;DHT22;11018;51.258;6.806;2023-12-07T00:21:38;1.20;99.90
4354;DHT22;11018;51.258;6.806;2023-12-07T00:24:03;1.30;99.90
4354;DHT22;11018;51.258;6.806;2023-12-07T00:26:29;1.30;99.90
4354;DHT22;11018;51.258;6.806;2023-12-07T00:28:55;1.40;99.90
4354;DHT22;11018;51.258;6.806;2023-12-07T00:31:20;1.30;99.90
4354;DHT22;11018;51.258;6.806;2023-12-07T00:33:46;1.20;99.90
4354;DHT22;11018;51.258;6.806;2023-12-07T00:36:11;1.30;99.90
4354;DHT22;11018;51.258;6.806;2023-12-07T00:38:37;1.20;99.90
4354;DHT22;11018;51.258;6.806;2023-12-07T00:41:03;1.20;99.90
4354;DHT22;11018;51.258;6.806;2023-12-07T00:43:29;1.30;99.90
4354;DHT22;11018;51.258;6.806;2023-12-07T00:45:54;1.40;99.90
4354;DHT22;11018;51.258;6.806;2023-12-07T00:48:20;1.40;99.90
4354;DHT22;11018;51.258;6.806;2023-12-07T00:50:45;1.50;99.90
4354;DHT22;11018;51.258;6.806;2023-12-07T00:53:12;1.50;99.90
4354;DHT22;11018;51.258;6.806;2023-12-07T00:55:38;1.60;99.90
4354;DHT22;11018;51.258;6.806;2023-12-07T00:58:05;1.60;99.90
4354;DHT22;11018;51.258;6.806;2023-12-07T01:00:31;1.70;99.90
4354;DHT22;11018;51.258;6.806;2023-12-07T01:02:56;1.70;99.90
4354;DHT22;11018;51.258;6.806;2023-12-07T01:05:22;1.80;99.90
4354;DHT22;11018;51.258;6.806;2023-12-07T01:07:47;1.80;99.90
4354;DHT22;11018;51.258;6.806;2023-12-07T01:10:13;1.90;99.90
4354;DHT22;11018;51.258;6.806;2023-12-07T01:12:39;1.80;99.90
4354;DHT22;11018;51.258;6.806;2023-12-07T01:15:05;1.80;99.90
4354;DHT22;11018;51.258;6.806;2023-12-07T01:17:31;1.80;99.90
4354;DHT22;11018;51.258;6.806;2023-12-07T01:19:56;1.90;99.90
4354;DHT22;11018;51.258;6.806;2023-12-07T01:22:22;1.80;99.90
4354;DHT22;11018;51.258;6.806;2023-12-07T01:24:47;1.80;99.90
4354;DHT22;11018;51.258;6.806;2023-12-07T01:27:13;1.80;99.90
4354;DHT22;11018;51.258;6.806;2023-12-07T01:29:39;1.70;99.90
4354;DHT22;11018;51.258;6.806;2023-12-07T01:32:04;1.60;99.90
4354;DHT22;11018;51.258;6.806;2023-12-07T01:34:31;1.60;99.90
4354;DHT22;11018;51.258;6.806;2023-12-07T01:36:58;1.50;99.90
4354;DHT22;11018;51.258;6.806;2023-12-07T01:39:23;1.40;99.90
4354;DHT22;11018;51.258;6.806;2023-12-07T01:41:50;1.40;99.90
4354;DHT22;11018;51.258;6.806;2023-12-07T01:44:16;1.40;99.90
4354;DHT22;11018;51.258;6.806;2023-12-07T01:46:42;1.30;99.90
4354;DHT22;11018;51.258;6.806;2023-12-07T01:49:08;1.40;99.90
4354;DHT22;11018;51.258;6.806;2023-12-07T01:51:34;1.20;99.90
4354;DHT22;11018;51.258;6.806;2023-12-07T01:54:01;1.10;99.90
4354;DHT22;11018;51.258;6.806;2023-12-07T01:56:27;1.00;99.90
4354;DHT22;11018;51.258;6.806;2023-12-07T01:58:53;0.90;99.90
4354;DHT22;11018;51.258;6.806;2023-12-07T02:01:18;0.90;99.90
4354;DHT22;11018;51.258;6.806;2023-12-07T02:03:44;0.90;99.90
4354;DHT22;11018;51.258;6.806;2023-12-07T02:06:12;0.90;99.90
4354;DHT22;11018;51.258;6.806;2023-12-07T02:08:39;1.10;99.90
4354;DHT22;11018;51.258;6.806;2023-12-07T02:11:10;1.20;99.90
4354;DHT22;11018;51.258;6.806;2023-12-07T02:13:37;1.40;99.90
4354;DHT22;11018;51.258;6.806;2023-12-07T02:16:09;1.50;99.90
4354;DHT22;11018;51.258;6.806;2023-12-07T02:18:51;1.70;99.90
4354;DHT22;11018;51.258;6.806;2023-12-07T02:21:40;1.80;99.90
4354;DHT22;11018;51.258;6.806;2023-12-07T02:24:11;2.00;99.90
4354;DHT22;11018;51.258;6.806;2023-12-07T02:26:42;2.10;99.90
4354;DHT22;11018;51.258;6.806;2023-12-07T02:29:08;2.20;99.90
4354;DHT22;11018;51.258;6.806;2023-12-07T02:31:33;2.30;99.90
4354;DHT22;11018;51.258;6.806;2023-12-07T02:33:59;2.30;99.90
4354;DHT22;11018;51.258;6.806;2023-12-07T02:36:27;2.40;99.90
4354;DHT22;11018;51.258;6.806;2023-12-07T02:38:56;2.50;99.90
4354;DHT22;11018;51.258;6.806;2023-12-07T02:41:22;2.50;99.90
4354;DHT22;11018;51.258;6.806;2023-12-07T02:43:49;2.60;99.90
4354;DHT22;11018;51.258;6.806;2023-12-07T02:46:14;2.60;99.90
4354;DHT22;11018;51.258;6.806;2023-12-07T02:48:40;2.70;99.90
4354;DHT22;11018;51.258;6.806;2023-12-07T02:51:06;2.70;99.90
4354;DHT22;11018;51.258;6.806;2023-12-07T02:53:32;2.80;99.90
4354;DHT22;11018;51.258;6.806;2023-12-07T02:55:57;2.80;99.90
4354;DHT22;11018;51.258;6.806;2023-12-07T02:58:23;2.90;99.90
4354;DHT22;11018;51.258;6.806;2023-12-07T03:00:49;2.90;99.90
4354;DHT22;11018;51.258;6.806;2023-12-07T03:03:15;2.90;99.90
4354;DHT22;11018;51.258;6.806;2023-12-07T03:05:40;3.00;99.90
4354;DHT22;11018;51.258;6.806;2023-12-07T03:08:06;3.00;99.90
4354;DHT22;11018;51.258;6.806;2023-12-07T03:10:31;3.00;99.90
4354;DHT22;11018;51.258;6.806;2023-12-07T03:12:57;3.10;99.90
4354;DHT22;11018;51.258;6.806;2023-12-07T03:15:23;3.10;99.90
4354;DHT22;11018;51.258;6.806;2023-12-07T03:17:49;3.10;99.90
4354;DHT22;11018;51.258;6.806;2023-12-07T03:20:15;3.10;99.90
4354;DHT22;11018;51.258;6.806;2023-12-07T03:22:41;3.10;99.90
4354;DHT22;11018;51.258;6.806;2023-12-07T03:25:06;3.10;99.90
4354;DHT22;11018;51.258;6.806;2023-12-07T03:27:32;3.10;99.90
4354;DHT22;11018;51.258;6.806;2023-12-07T03:29:57;3.10;99.90
4354;DHT22;11018;51.258;6.806;2023-12-07T03:32:23;3.20;99.90
4354;DHT22;11018;51.258;6.806;2023-12-07T03:34:49;3.10;99.90
4354;DHT22;11018;51.258;6.806;2023-12-07T03:37:14;3.10;99.90
4354;DHT22;11018;51.258;6.806;2023-12-07T03:39:40;3.10;99.90
4354;DHT22;11018;51.258;6.806;2023-12-07T03:42:05;3.10;99.90
4354;DHT22;11018;51.258;6.806;2023-12-07T03:44:31;3.20;99.90
4354;DHT22;11018;51.258;6.806;2023-12-07T03:46:56;3.30;99.90
4354;DHT22;11018;51.258;6.806;2023-12-07T03:49:22;3.30;99.90
4354;DHT22;11018;51.258;6.806;2023-12-07T03:51:47;3.30;99.90
4354;DHT22;11018;51.258;6.806;2023-12-07T03:54:13;3.40;99.90
4354;DHT22;11018;51.258;6.806;2023-12-07T03:56:39;3.40;99.90
4354;DHT22;11018;51.258;6.806;2023-12-07T03:59:06;3.40;99.90
4354;DHT22;11018;51.258;6.806;2023-12-07T04:01:31;3.40;99.90
4354;DHT22;11018;51.258;6.806;2023-12-07T04:03:57;3.40;99.90
4354;DHT22;11018;51.258;6.806;2023-12-07T04:06:23;3.40;99.90
4354;DHT22;11018;51.258;6.806;2023-12-07T04:08:49;3.50;99.90
4354;DHT22;11018;51.258;6.806;2023-12-07T04:11:15;3.50;99.90
4354;DHT22;11018;51.258;6.806;2023-12-07T04:13:41;3.50;99.90
4354;DHT22;11018;51.258;6.806;2023-12-07T04:16:08;3.50;99.90
4354;DHT22;11018;51.258;6.806;2023-12-07T04:18:33;3.50;99.90
4354;DHT22;11018;51.258;6.806;2023-12-07T04:20:59;3.50;99.90
4354;DHT22;11018;51.258;6.806;2023-12-07T04:23:25;3.50;99.90
4354;DHT22;11018;51.258;6.806;2023-12-07T04:25:50;3.60;99.90
4354;DHT22;11018;51.258;6.806;2023-12-07T04:28:16;3.60;99.90
4354;DHT22;11018;51.258;6.806;2023-12-07T04:30:42;3.70;99.90
4354;DHT22;11018;51.258;6.806;2023-12-07T04:33:07;3.60;99.90
4354;DHT22;11018;51.258;6.806;2023-12-07T04:35:34;3.70;99.90
4354;DHT22;11018;51.258;6.806;2023-12-07T04:37:59;3.60;99.90
4354;DHT22;11018;51.258;6.806;2023-12-07T04:40:25;3.70;99.90
4354;DHT22;11018;51.258;6.806;2023-12-07T04:42:51;3.70;99.90
4354;DHT22;11018;51.258;6.806;2023-12-07T04:45:17;3.70;99.90
4354;DHT22;11018;51.258;6.806;2023-12-07T04:47:43;3.70;99.90
4354;DHT22;11018;51.258;6.806;2023-12-07T04:50:08;3.80;99.90
4354;DHT22;11018;51.258;6.806;2023-12-07T04:52:35;3.80;99.90
4354;DHT22;11018;51.258;6.806;2023-12-07T04:55:01;3.90;99.90
4354;DHT22;11018;51.258;6.806;2023-12-07T04:57:27;3.90;99.90
4354;DHT22;11018;51.258;6.806;2023-12-07T04:59:52;3.90;99.90
4354;DHT22;11018;51.258;6.806;2023-12-07T05:02:18;3.90;99.90
4354;DHT22;11018;51.258;6.806;2023-12-07T05:04:44;3.90;99.90
4354;DHT22;11018;51.258;6.806;2023-12-07T05:07:11;3.90;99.90
4354;DHT22;11018;51.258;6.806;2023-12-07T05:09:38;3.90;99.90
4354;DHT22;11018;51.258;6.806;2023-12-07T05:12:04;3.90;99.90
4354;DHT22;11018;51.258;6.806;2023-12-07T05:14:31;4.00;99.90
4354;DHT22;11018;51.258;6.806;2023-12-07T05:16:56;4.00;99.90
4354;DHT22;11018;51.258;6.806;2023-12-07T05:19:25;4.00;99.90
4354;DHT22;11018;51.258;6.806;2023-12-07T05:21:51;4.00;99.90
4354;DHT22;11018;51.258;6.806;2023-12-07T05:24:17;4.00;99.90
4354;DHT22;11018;51.258;6.806;2023-12-07T05:26:44;4.10;99.90
4354;DHT22;11018;51.258;6.806;2023-12-07T05:29:11;4.10;99.90
4354;DHT22;11018;51.258;6.806;2023-12-07T05:31:37;4.20;99.90
4354;DHT22;11018;51.258;6.806;2023-12-07T05:34:03;4.20;99.90
4354;DHT22;11018;51.258;6.806;2023-12-07T05:36:29;4.10;99.90
4354;DHT22;11018;51.258;6.806;2023-12-07T05:38:54;4.20;99.90
4354;DHT22;11018;51.258;6.806;2023-12-07T05:41:20;4.20;99.90
4354;DHT22;11018;51.258;6.806;2023-12-07T05:43:45;4.20;99.90
4354;DHT22;11018;51.258;6.806;2023-12-07T05:46:11;4.20;99.90
4354;DHT22;11018;51.258;6.806;2023-12-07T05:48:37;4.40;99.90
4354;DHT22;11018;51.258;6.806;2023-12-07T05:51:03;4.60;98.60
4354;DHT22;11018;51.258;6.806;2023-12-07T05:53:29;4.60;93.80
4354;DHT22;11018;51.258;6.806;2023-12-07T05:55:55;4.50;93.80
4354;DHT22;11018;51.258;6.806;2023-12-07T05:58:20;4.40;94.70
4354;DHT22;11018;51.258;6.806;2023-12-07T06:00:46;4.30;96.20
4354;DHT22;11018;51.258;6.806;2023-12-07T06:03:13;4.20;97.30
4354;DHT22;11018;51.258;6.806;2023-12-07T06:05:38;4.10;98.80
4354;DHT22;11018;51.258;6.806;2023-12-07T06:08:04;4.30;98.10
4354;DHT22;11018;51.258;6.806;2023-12-07T06:10:30;4.20;97.20
4354;DHT22;11018;51.258;6.806;2023-12-07T06:12:56;4.30;96.60
4354;DHT22;11018;51.258;6.806;2023-12-07T06:15:24;4.20;98.20
4354;DHT22;11018;51.258;6.806;2023-12-07T06:17:49;4.20;98.40
4354;DHT22;11018;51.258;6.806;2023-12-07T06:20:15;4.20;98.30
4354;DHT22;11018;51.258;6.806;2023-12-07T06:22:41;4.10;99.30
4354;DHT22;11018;51.258;6.806;2023-12-07T06:25:06;4.10;97.30
4354;DHT22;11018;51.258;6.806;2023-12-07T06:27:36;4.00;98.00
4354;DHT22;11018;51.258;6.806;2023-12-07T06:30:02;3.90;99.50
4354;DHT22;11018;51.258;6.806;2023-12-07T06:32:31;3.80;97.90
4354;DHT22;11018;51.258;6.806;2023-12-07T06:34:57;3.70;98.70
4354;DHT22;11018;51.258;6.806;2023-12-07T06:37:22;3.60;99.10
4354;DHT22;11018;51.258;6.806;2023-12-07T06:39:48;3.50;99.90
4354;DHT22;11018;51.258;6.806;2023-12-07T06:42:14;3.30;99.90
4354;DHT22;11018;51.258;6.806;2023-12-07T06:44:40;3.20;99.90
4354;DHT22;11018;51.258;6.806;2023-12-07T06:47:05;3.20;99.90
4354;DHT22;11018;51.258;6.806;2023-12-07T06:49:31;3.10;99.90
4354;DHT22;11018;51.258;6.806;2023-12-07T06:51:56;3.10;99.90
4354;DHT22;11018;51.258;6.806;2023-12-07T06:54:22;3.00;99.90
4354;DHT22;11018;51.258;6.806;2023-12-07T06:56:48;2.90;99.90
4354;DHT22;11018;51.258;6.806;2023-12-07T06:59:13;2.90;99.90
4354;DHT22;11018;51.258;6.806;2023-12-07T07:01:39;2.90;99.90
4354;DHT22;11018;51.258;6.806;2023-12-07T07:04:05;2.90;99.90
4354;DHT22;11018;51.258;6.806;2023-12-07T07:06:31;2.90;99.90
4354;DHT22;11018;51.258;6.806;2023-12-07T07:08:56;2.90;99.90
4354;DHT22;11018;51.258;6.806;2023-12-07T07:11:22;2.90;99.90
4354;DHT22;11018;51.258;6.806;2023-12-07T07:13:47;3.00;99.90
4354;DHT22;11018;51.258;6.806;2023-12-07T07:16:13;3.00;99.90
4354;DHT22;11018;51.258;6.806;2023-12-07T07:18:38;3.10;99.90
4354;DHT22;11018;51.258;6.806;2023-12-07T07:21:05;3.20;99.90
4354;DHT22;11018;51.258;6.806;2023-12-07T07:23:30;3.20;99.90
4354;DHT22;11018;51.258;6.806;2023-12-07T07:25:56;3.30;99.90
4354;DHT22;11018;51.258;6.806;2023-12-07T07:28:22;3.40;99.90
4354;DHT22;11018;51.258;6.806;2023-12-07T07:30:47;3.40;99.90
4354;DHT22;11018;51.258;6.806;2023-12-07T07:33:13;3.40;99.90
4354;DHT22;11018;51.258;6.806;2023-12-07T07:35:38;3.30;99.90
4354;DHT22;11018;51.258;6.806;2023-12-07T07:38:04;3.20;99.90
4354;DHT22;11018;51.258;6.806;2023-12-07T07:40:29;3.20;99.90
4354;DHT22;11018;51.258;6.806;2023-12-07T07:42:55;3.10;99.90
4354;DHT22;11018;51.258;6.806;2023-12-07T07:45:20;3.10;99.90
4354;DHT22;11018;51.258;6.806;2023-12-07T07:47:46;3.00;99.90
4354;DHT22;11018;51.258;6.806;2023-12-07T07:50:12;3.00;99.90
4354;DHT22;11018;51.258;6.806;2023-12-07T07:52:37;3.00;99.90
4354;DHT22;11018;51.258;6.806;2023-12-07T07:55:04;3.00;99.90
4354;DHT22;11018;51.258;6.806;2023-12-07T07:57:30;3.00;99.90
4354;DHT22;11018;51.258;6.806;2023-12-07T07:59:56;3.00;99.90
4354;DHT22;11018;51.258;6.806;2023-12-07T08:02:24;3.00;99.90
4354;DHT22;11018;51.258;6.806;2023-12-07T08:04:50;2.90;99.90
4354;DHT22;11018;51.258;6.806;2023-12-07T08:07:17;3.00;99.90
4354;DHT22;11018;51.258;6.806;2023-12-07T08:09:42;3.00;99.90
4354;DHT22;11018;51.258;6.806;2023-12-07T08:12:08;3.00;99.90
4354;DHT22;11018;51.258;6.806;2023-12-07T08:14:37;3.00;99.90
4354;DHT22;11018;51.258;6.806;2023-12-07T08:17:03;3.00;99.90
4354;DHT22;11018;51.258;6.806;2023-12-07T08:19:29;3.00;99.90
4354;DHT22;11018;51.258;6.806;2023-12-07T08:21:54;3.00;99.90
4354;DHT22;11018;51.258;6.806;2023-12-07T08:24:20;3.00;99.90
4354;DHT22;11018;51.258;6.806;2023-12-07T08:26:45;3.00;99.90
4354;DHT22;11018;51.258;6.806;2023-12-07T08:29:11;3.10;99.90
4354;DHT22;11018;51.258;6.806;2023-12-07T08:31:37;3.10;99.90
4354;DHT22;11018;51.258;6.806;2023-12-07T08:34:02;3.10;99.90
4354;DHT22;11018;51.258;6.806;2023-12-07T08:36:28;3.10;99.90
4354;DHT22;11018;51.258;6.806;2023-12-07T08:38:53;3.20;99.90
4354;DHT22;11018;51.258;6.806;2023-12-07T08:41:19;3.20;99.90
4354;DHT22;11018;51.258;6.806;2023-12-07T08:43:45;3.20;99.90
4354;DHT22;11018;51.258;6.806;2023-12-07T08:46:11;3.20;99.90
4354;DHT22;11018;51.258;6.806;2023-12-07T08:48:37;3.30;99.90
4354;DHT22;11018;51.258;6.806;2023-12-07T08:51:05;3.30;99.90
4354;DHT22;11018;51.258;6.806;2023-12-07T08:53:34;3.40;98.60
4354;DHT22;11018;51.258;6.806;2023-12-07T08:55:59;3.30;97.50
4354;DHT22;11018;51.258;6.806;2023-12-07T08:58:26;3.40;99.90
4354;DHT22;11018;51.258;6.806;2023-12-07T09:00:52;3.50;95.10
4354;DHT22;11018;51.258;6.806;2023-12-07T09:03:17;3.60;96.30
4354;DHT22;11018;51.258;6.806;2023-12-07T09:05:43;3.60;95.90
4354;DHT22;11018;51.258;6.806;2023-12-07T09:08:09;3.60;92.30
4354;DHT22;11018;51.258;6.806;2023-12-07T09:10:35;3.60;89.90
4354;DHT22;11018;51.258;6.806;2023-12-07T09:13:01;3.70;90.40
4354;DHT22;11018;51.258;6.806;2023-12-07T09:15:26;3.70;91.90
4354;DHT22;11018;51.258;6.806;2023-12-07T09:17:52;4.10;94.20
4354;DHT22;11018;51.258;6.806;2023-12-07T09:20:17;4.60;80.80
4354;DHT22;11018;51.258;6.806;2023-12-07T09:22:44;4.50;74.60
4354;DHT22;11018;51.258;6.806;2023-12-07T09:25:10;4.30;76.70
4354;DHT22;11018;51.258;6.806;2023-12-07T09:27:39;4.20;76.90
4354;DHT22;11018;51.258;6.806;2023-12-07T09:30:06;4.20;77.70
4354;DHT22;11018;51.258;6.806;2023-12-07T09:32:32;4.10;81.60
4354;DHT22;11018;51.258;6.806;2023-12-07T09:35:04;4.10;79.80
4354;DHT22;11018;51.258;6.806;2023-12-07T09:37:32;4.10;76.90
4354;DHT22;11018;51.258;6.806;2023-12-07T09:39:58;4.10;75.30
4354;DHT22;11018;51.258;6.806;2023-12-07T09:42:23;4.10;78.10
4354;DHT22;11018;51.258;6.806;2023-12-07T09:44:49;4.00;77.60
4354;DHT22;11018;51.258;6.806;2023-12-07T09:47:14;4.10;76.10
4354;DHT22;11018;51.258;6.806;2023-12-07T09:49:40;4.00;75.90
4354;DHT22;11018;51.258;6.806;2023-12-07T09:52:07;4.00;77.20
4354;DHT22;11018;51.258;6.806;2023-12-07T09:54:33;4.00;79.10
4354;DHT22;11018;51.258;6.806;2023-12-07T09:57:01;4.10;78.40
4354;DHT22;11018;51.258;6.806;2023-12-07T09:59:26;4.20;73.20
4354;DHT22;11018;51.258;6.806;2023-12-07T10:01:52;4.20;74.70
4354;DHT22;11018;51.258;6.806;2023-12-07T10:04:22;4.20;73.20
4354;DHT22;11018;51.258;6.806;2023-12-07T10:06:49;4.30;78.20
4354;DHT22;11018;51.258;6.806;2023-12-07T10:09:15;4.40;74.80
4354;DHT22;11018;51.258;6.806;2023-12-07T10:11:41;4.40;74.90
4354;DHT22;11018;51.258;6.806;2023-12-07T10:14:08;4.30;70.10
4354;DHT22;11018;51.258;6.806;2023-12-07T10:16:34;4.30;69.90
4354;DHT22;11018;51.258;6.806;2023-12-07T10:19:16;4.40;72.40
4354;DHT22;11018;51.258;6.806;2023-12-07T10:21:49;4.40;70.10
4354;DHT22;11018;51.258;6.806;2023-12-07T10:24:16;4.60;70.00
4354;DHT22;11018;51.258;6.806;2023-12-07T10:26:43;4.60;68.90
4354;DHT22;11018;51.258;6.806;2023-12-07T10:29:09;4.70;68.70
4354;DHT22;11018;51.258;6.806;2023-12-07T10:31:36;4.70;64.60
4354;DHT22;11018;51.258;6.806;2023-12-07T10:34:02;4.60;63.20
4354;DHT22;11018;51.258;6.806;2023-12-07T10:36:27;4.60;63.30
4354;DHT22;11018;51.258;6.806;2023-12-07T10:38:53;4.60;63.60
4354;DHT22;11018;51.258;6.806;2023-12-07T10:41:21;4.50;62.90
4354;DHT22;11018;51.258;6.806;2023-12-07T10:43:59;4.60;64.90
4354;DHT22;11018;51.258;6.806;2023-12-07T10:46:25;4.60;63.90
4354;DHT22;11018;51.258;6.806;2023-12-07T10:48:55;4.80;65.40
4354;DHT22;11018;51.258;6.806;2023-12-07T10:51:31;4.70;64.10
4354;DHT22;11018;51.258;6.806;2023-12-07T10:54:02;4.70;63.30
4354;DHT22;11018;51.258;6.806;2023-12-07T10:56:38;4.70;64.00
4354;DHT22;11018;51.258;6.806;2023-12-07T10:59:07;4.80;60.50
4354;DHT22;11018;51.258;6.806;2023-12-07T11:01:34;4.80;59.60
4354;DHT22;11018;51.258;6.806;2023-12-07T11:04:01;4.90;58.80
4354;DHT22;11018;51.258;6.806;2023-12-07T11:06:27;4.90;60.60
4354;DHT22;11018;51.258;6.806;2023-12-07T11:08:58;5.00;58.20
4354;DHT22;11018;51.258;6.806;2023-12-07T11:11:31;4.90;60.40
4354;DHT22;11018;51.258;6.806;2023-12-07T11:13:59;4.90;61.40
4354;DHT22;11018;51.258;6.806;2023-12-07T11:16:36;4.90;60.70
4354;DHT22;11018;51.258;6.806;2023-12-07T11:19:03;5.00;60.90
4354;DHT22;11018;51.258;6.806;2023-12-07T11:21:30;4.90;60.70
4354;DHT22;11018;51.258;6.806;2023-12-07T11:23:55;4.90;57.10
4354;DHT22;11018;51.258;6.806;2023-12-07T11:26:25;4.80;59.20
4354;DHT22;11018;51.258;6.806;2023-12-07T11:28:51;4.70;58.60
4354;DHT22;11018;51.258;6.806;2023-12-07T11:31:16;4.70;59.70
4354;DHT22;11018;51.258;6.806;2023-12-07T11:33:42;4.70;60.30
4354;DHT22;11018;51.258;6.806;2023-12-07T11:36:09;4.80;58.00
4354;DHT22;11018;51.258;6.806;2023-12-07T11:38:39;4.80;58.30
4354;DHT22;11018;51.258;6.806;2023-12-07T11:41:24;4.80;56.30
4354;DHT22;11018;51.258;6.806;2023-12-07T11:43:50;4.90;56.90
4354;DHT22;11018;51.258;6.806;2023-12-07T11:46:18;4.90;56.30
4354;DHT22;11018;51.258;6.806;2023-12-07T11:48:48;5.00;54.80
4354;DHT22;11018;51.258;6.806;2023-12-07T11:51:16;4.90;54.10
4354;DHT22;11018;51.258;6.806;2023-12-07T11:53:42;4.90;54.60
4354;DHT22;11018;51.258;6.806;2023-12-07T11:56:09;5.00;57.90
4354;DHT22;11018;51.258;6.806;2023-12-07T11:58:36;5.10;54.70
4354;DHT22;11018;51.258;6.806;2023-12-07T12:01:03;5.00;54.40
4354;DHT22;11018;51.258;6.806;2023-12-07T12:03:31;5.00;56.50
4354;DHT22;11018;51.258;6.806;2023-12-07T12:06:01;5.10;56.80
4354;DHT22;11018;51.258;6.806;2023-12-07T12:08:27;5.10;54.00
4354;DHT22;11018;51.258;6.806;2023-12-07T12:10:54;5.10;52.10
4354;DHT22;11018;51.258;6.806;2023-12-07T12:13:30;5.10;53.80
4354;DHT22;11018;51.258;6.806;2023-12-07T12:15:59;5.10;54.10
4354;DHT22;11018;51.258;6.806;2023-12-07T12:18:25;5.10;55.40
4354;DHT22;11018;51.258;6.806;2023-12-07T12:20:53;5.10;55.20
4354;DHT22;11018;51.258;6.806;2023-12-07T12:23:18;5.20;55.30
4354;DHT22;11018;51.258;6.806;2023-12-07T12:25:45;5.30;54.80
4354;DHT22;11018;51.258;6.806;2023-12-07T12:28:11;5.30;51.80
4354;DHT22;11018;51.258;6.806;2023-12-07T12:30:39;5.20;52.80
4354;DHT22;11018;51.258;6.806;2023-12-07T12:33:05;5.10;51.50
4354;DHT22;11018;51.258;6.806;2023-12-07T12:35:30;5.10;54.50
4354;DHT22;11018;51.258;6.806;2023-12-07T12:37:57;5.10;53.70
4354;DHT22;11018;51.258;6.806;2023-12-07T12:40:23;5.10;52.60
4354;DHT22;11018;51.258;6.806;2023-12-07T12:42:50;5.10;53.10
4354;DHT22;11018;51.258;6.806;2023-12-07T12:45:17;5.10;53.80
4354;DHT22;11018;51.258;6.806;2023-12-07T12:47:46;5.10;54.10
4354;DHT22;11018;51.258;6.806;2023-12-07T12:50:36;5.20;52.90
4354;DHT22;11018;51.258;6.806;2023-12-07T12:53:06;5.20;53.90
4354;DHT22;11018;51.258;6.806;2023-12-07T12:55:36;5.40;54.80
4354;DHT22;11018;51.258;6.806;2023-12-07T12:58:03;5.40;51.80
4354;DHT22;11018;51.258;6.806;2023-12-07T13:00:30;5.50;52.50
4354;DHT22;11018;51.258;6.806;2023-12-07T13:02:58;5.40;54.20
4354;DHT22;11018;51.258;6.806;2023-12-07T13:05:25;5.50;53.90
4354;DHT22;11018;51.258;6.806;2023-12-07T13:07:51;5.50;51.70
4354;DHT22;11018;51.258;6.806;2023-12-07T13:10:16;5.50;50.40
4354;DHT22;11018;51.258;6.806;2023-12-07T13:12:42;5.60;48.90
4354;DHT22;11018;51.258;6.806;2023-12-07T13:15:09;5.50;50.40
4354;DHT22;11018;51.258;6.806;2023-12-07T13:17:35;5.50;52.20
4354;DHT22;11018;51.258;6.806;2023-12-07T13:20:00;5.50;51.40
4354;DHT22;11018;51.258;6.806;2023-12-07T13:22:26;5.50;52.70
4354;DHT22;11018;51.258;6.806;2023-12-07T13:24:52;5.50;52.70
4354;DHT22;11018;51.258;6.806;2023-12-07T13:27:18;5.50;53.00
4354;DHT22;11018;51.258;6.806;2023-12-07T13:29:43;5.50;53.10
4354;DHT22;11018;51.258;6.806;2023-12-07T13:32:10;5.60;50.30
4354;DHT22;11018;51.258;6.806;2023-12-07T13:34:35;5.60;51.20
4354;DHT22;11018;51.258;6.806;2023-12-07T13:37:01;5.50;50.40
4354;DHT22;11018;51.258;6.806;2023-12-07T13:39:26;5.60;49.80
4354;DHT22;11018;51.258;6.806;2023-12-07T13:41:54;5.60;51.20
4354;DHT22;11018;51.258;6.806;2023-12-07T13:44:20;5.80;51.70
4354;DHT22;11018;51.258;6.806;2023-12-07T13:46:45;5.90;51.40
4354;DHT22;11018;51.258;6.806;2023-12-07T13:49:11;6.00;48.60
4354;DHT22;11018;51.258;6.806;2023-12-07T13:51:39;6.00;47.60
4354;DHT22;11018;51.258;6.806;2023-12-07T13:54:05;5.90;48.20
4354;DHT22;11018;51.258;6.806;2023-12-07T13:56:30;5.80;49.60
4354;DHT22;11018;51.258;6.806;2023-12-07T13:58:56;5.90;50.50
4354;DHT22;11018;51.258;6.806;2023-12-07T14:01:21;6.00;50.70
4354;DHT22;11018;51.258;6.806;2023-12-07T14:03:47;6.00;49.20
4354;DHT22;11018;51.258;6.806;2023-12-07T14:06:24;6.00;47.60
4354;DHT22;11018;51.258;6.806;2023-12-07T14:08:50;6.10;48.80
4354;DHT22;11018;51.258;6.806;2023-12-07T14:11:19;6.10;48.80
4354;DHT22;11018;51.258;6.806;2023-12-07T14:13:45;6.10;49.30
4354;DHT22;11018;51.258;6.806;2023-12-07T14:16:14;6.10;48.30
4354;DHT22;11018;51.258;6.806;2023-12-07T14:18:40;6.10;48.30
4354;DHT22;11018;51.258;6.806;2023-12-07T14:21:05;6.00;48.20
4354;DHT22;11018;51.258;6.806;2023-12-07T14:23:31;5.90;49.20
4354;DHT22;11018;51.258;6.806;2023-12-07T14:25:57;5.70;49.80
4354;DHT22;11018;51.258;6.806;2023-12-07T14:28:27;5.60;51.30
4354;DHT22;11018;51.258;6.806;2023-12-07T14:30:56;5.40;51.80
4354;DHT22;11018;51.258;6.806;2023-12-07T14:33:22;5.40;52.80
4354;DHT22;11018;51.258;6.806;2023-12-07T14:35:48;5.50;53.80
4354;DHT22;11018;51.258;6.806;2023-12-07T14:38:14;5.40;52.70
4354;DHT22;11018;51.258;6.806;2023-12-07T14:40:40;5.20;53.70
4354;DHT22;11018;51.258;6.806;2023-12-07T14:43:05;5.10;54.30
4354;DHT22;11018;51.258;6.806;2023-12-07T14:45:31;5.00;55.60
4354;DHT22;11018;51.258;6.806;2023-12-07T14:47:56;5.20;55.60
4354;DHT22;11018;51.258;6.806;2023-12-07T14:50:23;5.20;53.90
4354;DHT22;11018;51.258;6.806;2023-12-07T14:52:49;5.10;57.40
4354;DHT22;11018;51.258;6.806;2023-12-07T14:55:14;5.10;56.40
4354;DHT22;11018;51.258;6.806;2023-12-07T14:57:40;5.10;57.70
4354;DHT22;11018;51.258;6.806;2023-12-07T15:00:07;5.00;54.80
4354;DHT22;11018;51.258;6.806;2023-12-07T15:02:33;4.80;56.90
4354;DHT22;11018;51.258;6.806;2023-12-07T15:04:58;4.90;58.00
4354;DHT22;11018;51.258;6.806;2023-12-07T15:07:24;4.70;59.80
4354;DHT22;11018;51.258;6.806;2023-12-07T15:09:49;4.60;61.10
4354;DHT22;11018;51.258;6.806;2023-12-07T15:12:17;4.50;61.90
4354;DHT22;11018;51.258;6.806;2023-12-07T15:14:44;4.40;62.60
4354;DHT22;11018;51.258;6.806;2023-12-07T15:17:11;4.40;63.70
4354;DHT22;11018;51.258;6.806;2023-12-07T15:19:37;4.30;63.40
4354;DHT22;11018;51.258;6.806;2023-12-07T15:22:03;4.40;64.50
4354;DHT22;11018;51.258;6.806;2023-12-07T15:24:28;4.30;65.10
4354;DHT22;11018;51.258;6.806;2023-12-07T15:26:54;4.40;64.00
4354;DHT22;11018;51.258;6.806;2023-12-07T15:29:19;4.30;62.90
4354;DHT22;11018;51.258;6.806;2023-12-07T15:31:45;4.20;60.90
4354;DHT22;11018;51.258;6.806;2023-12-07T15:34:10;4.20;62.70
4354;DHT22;11018;51.258;6.806;2023-12-07T15:36:37;4.20;63.40
4354;DHT22;11018;51.258;6.806;2023-12-07T15:39:02;4.10;63.00
4354;DHT22;11018;51.258;6.806;2023-12-07T15:41:28;4.10;60.60
4354;DHT22;11018;51.258;6.806;2023-12-07T15:43:54;3.90;61.40
4354;DHT22;11018;51.258;6.806;2023-12-07T15:46:19;3.90;64.10
4354;DHT22;11018;51.258;6.806;2023-12-07T15:48:46;4.10;64.50
4354;DHT22;11018;51.258;6.806;2023-12-07T15:51:11;4.00;64.90
4354;DHT22;11018;51.258;6.806;2023-12-07T15:53:37;4.00;65.20
4354;DHT22;11018;51.258;6.806;2023-12-07T15:56:04;4.00;64.10
4354;DHT22;11018;51.258;6.806;2023-12-07T15:58:30;3.90;64.50